createdAt,value
2022-07-29T00:02:44.166Z,20.06
2022-07-29T00:05:46.518Z,20.06
2022-07-29T00:08:48.780Z,19.95
2022-07-29T00:11:51.069Z,19.95
2022-07-29T00:14:57.382Z,19.84
2022-07-29T00:17:59.705Z,19.84
2022-07-29T00:21:01.964Z,19.78
2022-07-29T00:24:04.645Z,19.71
2022-07-29T00:27:07.146Z,19.74
2022-07-29T00:30:09.772Z,19.96
2022-07-29T00:33:12.013Z,19.92
2022-07-29T00:36:14.355Z,20.08
2022-07-29T00:39:16.576Z,20.18
2022-07-29T00:42:18.893Z,20.28
2022-07-29T00:45:21.215Z,20.08
2022-07-29T00:48:23.511Z,20.23
2022-07-29T00:51:28.119Z,19.98
2022-07-29T00:54:31.211Z,19.86
2022-07-29T00:57:34.335Z,19.68
2022-07-29T01:00:37.864Z,19.40
2022-07-29T01:03:40.224Z,19.63
2022-07-29T01:06:43.636Z,19.60
2022-07-29T01:09:47.308Z,19.49
2022-07-29T01:12:52.346Z,19.37
2022-07-29T01:16:10.440Z,19.22
2022-07-29T01:19:49.931Z,18.51
2022-07-29T01:23:06.373Z,18.47
2022-07-29T01:26:20.509Z,18.59
2022-07-29T01:29:40.548Z,18.83
2022-07-29T01:32:51.192Z,19.04
2022-07-29T01:35:53.566Z,19.00
2022-07-29T01:39:04.081Z,19.23
2022-07-29T01:42:27.542Z,19.23
2022-07-29T01:45:32.475Z,19.02
2022-07-29T01:48:48.310Z,18.89
2022-07-29T01:52:01.689Z,18.79
2022-07-29T01:55:17.662Z,18.77
2022-07-29T01:58:21.709Z,18.44
2022-07-29T02:01:26.056Z,18.30
2022-07-29T02:04:30.443Z,18.21
2022-07-29T02:07:36.689Z,18.44
2022-07-29T02:10:41.082Z,18.61
2022-07-29T02:13:44.833Z,18.28
2022-07-29T02:16:50.742Z,18.15
2022-07-29T02:19:57.775Z,18.04
2022-07-29T02:23:01.316Z,17.76
2022-07-29T02:26:03.996Z,18.10
2022-07-29T02:29:08.291Z,18.11
2022-07-29T02:32:12.160Z,18.22
2022-07-29T02:35:17.010Z,18.38
2022-07-29T02:38:39.720Z,18.48
2022-07-29T02:41:52.625Z,18.45
2022-07-29T02:44:55.159Z,18.53
2022-07-29T02:48:00.755Z,18.34
2022-07-29T02:51:09.251Z,18.53
2022-07-29T02:54:37.778Z,18.24
2022-07-29T02:57:54.549Z,18.32
2022-07-29T03:01:21.575Z,17.84
2022-07-29T03:04:26.759Z,17.90
2022-07-29T03:07:30.307Z,17.86
2022-07-29T03:10:33.040Z,17.94
2022-07-29T03:13:36.536Z,17.98
2022-07-29T03:16:41.261Z,17.66
2022-07-29T03:19:44.200Z,17.87
2022-07-29T03:22:49.937Z,17.62
2022-07-29T03:25:52.622Z,17.18
2022-07-29T03:28:55.880Z,17.50
2022-07-29T03:31:58.230Z,17.74
2022-07-29T03:35:00.915Z,17.71
2022-07-29T03:38:03.631Z,17.69
2022-07-29T03:41:11.689Z,17.59
2022-07-29T03:44:16.819Z,16.94
2022-07-29T03:47:43.708Z,16.95
2022-07-29T03:50:47.102Z,17.05
2022-07-29T03:53:49.508Z,17.35
2022-07-29T03:56:53.974Z,17.45
2022-07-29T03:59:56.620Z,17.42
2022-07-29T04:02:59.146Z,17.50
2022-07-29T04:06:09.464Z,17.97
2022-07-29T04:09:12.171Z,18.15
2022-07-29T04:12:14.400Z,18.37
2022-07-29T04:15:16.845Z,18.53
2022-07-29T04:18:19.172Z,18.68
2022-07-29T04:21:21.524Z,18.73
2022-07-29T04:24:23.770Z,18.86
2022-07-29T04:27:26.565Z,18.95
2022-07-29T04:30:29.938Z,18.93
2022-07-29T04:33:32.235Z,19.02
2022-07-29T04:36:34.584Z,19.23
2022-07-29T04:39:36.837Z,19.16
2022-07-29T04:42:46.211Z,19.16
2022-07-29T04:45:49.379Z,19.47
2022-07-29T04:48:51.631Z,19.74
2022-07-29T04:51:54.221Z,19.91
2022-07-29T04:54:56.461Z,20.09
2022-07-29T04:57:58.760Z,20.22
2022-07-29T05:01:01.064Z,20.18
2022-07-29T05:04:03.469Z,20.46
2022-07-29T05:07:05.801Z,20.67
2022-07-29T05:10:10.799Z,20.69
2022-07-29T05:13:13.478Z,21.01
2022-07-29T05:16:15.936Z,21.20
2022-07-29T05:19:18.703Z,21.31
2022-07-29T05:22:27.636Z,21.15
2022-07-29T05:25:42.958Z,21.54
2022-07-29T05:28:46.396Z,21.61
2022-07-29T05:31:48.747Z,22.00
2022-07-29T05:34:51.896Z,22.48
2022-07-29T05:37:54.364Z,22.71
2022-07-29T05:40:59.161Z,23.02
2022-07-29T05:44:01.549Z,23.18
2022-07-29T05:47:04.045Z,23.36
2022-07-29T05:50:10.552Z,23.49
2022-07-29T05:53:20.112Z,23.67
2022-07-29T05:56:22.980Z,24.03
2022-07-29T05:59:30.107Z,24.31
2022-07-29T06:02:32.956Z,24.72
2022-07-29T06:05:35.443Z,25.02
2022-07-29T06:08:38.163Z,25.33
2022-07-29T06:11:40.936Z,25.58
2022-07-29T06:14:43.274Z,26.14
2022-07-29T06:17:59.907Z,26.32
2022-07-29T06:21:09.666Z,26.75
2022-07-29T06:24:13.918Z,26.82
2022-07-29T06:27:17.373Z,27.31
2022-07-29T06:30:19.807Z,27.31
2022-07-29T06:33:22.197Z,27.98
2022-07-29T06:36:24.613Z,28.54
2022-07-29T06:39:27.572Z,28.91
2022-07-29T06:42:29.967Z,29.42
2022-07-29T06:45:35.126Z,29.70
2022-07-29T06:48:38.189Z,29.73
2022-07-29T06:51:40.576Z,29.38
2022-07-29T06:54:48.999Z,29.63
2022-07-29T06:57:51.410Z,29.46
2022-07-29T07:00:53.927Z,29.56
2022-07-29T07:03:57.186Z,29.87
2022-07-29T07:07:00.604Z,29.66
2022-07-29T07:10:02.945Z,29.51
2022-07-29T07:13:06.417Z,29.63
2022-07-29T07:16:11.367Z,30.07
2022-07-29T07:19:14.368Z,30.18
2022-07-29T07:22:16.904Z,30.43
2022-07-29T07:25:19.465Z,30.79
2022-07-29T07:28:24.971Z,31.16
2022-07-29T07:31:27.689Z,31.35
2022-07-29T07:34:31.151Z,31.84
2022-07-29T07:37:33.888Z,32.10
2022-07-29T07:40:36.610Z,32.20
2022-07-29T07:43:39.123Z,32.05
2022-07-29T07:46:41.476Z,32.38
2022-07-29T07:49:45.055Z,32.87
2022-07-29T07:52:52.970Z,33.09
2022-07-29T07:56:12.281Z,33.29
2022-07-29T07:59:15.142Z,33.02
2022-07-29T08:02:17.740Z,33.27
2022-07-29T08:05:20.267Z,33.46
2022-07-29T08:08:22.699Z,33.63
2022-07-29T08:11:25.048Z,33.29
2022-07-29T08:14:27.460Z,33.31
2022-07-29T08:17:29.856Z,33.74
2022-07-29T08:20:34.273Z,34.38
2022-07-29T08:23:46.427Z,34.28
2022-07-29T08:26:52.033Z,33.93
2022-07-29T08:29:56.820Z,34.08
2022-07-29T08:32:59.866Z,33.53
2022-07-29T08:36:02.290Z,33.65
2022-07-29T08:39:05.323Z,34.32
2022-07-29T08:42:08.161Z,34.51
2022-07-29T08:45:11.041Z,34.12
2022-07-29T08:48:14.629Z,34.57
2022-07-29T08:51:20.663Z,34.51
2022-07-29T08:54:25.017Z,34.44
2022-07-29T08:57:28.474Z,34.93
2022-07-29T09:00:34.071Z,35.57
2022-07-29T09:03:38.390Z,34.75
2022-07-29T09:06:45.039Z,36.18
2022-07-29T09:09:47.948Z,36.76
2022-07-29T09:12:50.542Z,36.76
2022-07-29T09:15:53.771Z,35.65
2022-07-29T09:18:56.187Z,35.62
2022-07-29T09:22:01.144Z,34.76
2022-07-29T09:25:06.273Z,35.62
2022-07-29T09:28:17.655Z,35.70
2022-07-29T09:31:33.062Z,37.03
2022-07-29T09:34:35.643Z,37.27
2022-07-29T09:37:38.076Z,37.75
2022-07-29T09:40:40.941Z,36.35
2022-07-29T09:43:55.158Z,36.08
2022-07-29T09:46:59.813Z,35.54
2022-07-29T09:50:02.305Z,35.82
2022-07-29T09:53:05.004Z,36.09
2022-07-29T09:56:07.396Z,35.81
2022-07-29T09:59:12.280Z,36.37
2022-07-29T10:02:20.317Z,36.52
2022-07-29T10:05:36.529Z,37.47
2022-07-29T10:08:39.517Z,36.98
2022-07-29T10:11:49.754Z,37.64
2022-07-29T10:14:52.684Z,36.40
2022-07-29T10:17:58.518Z,35.58
2022-07-29T10:21:02.203Z,36.76
2022-07-29T10:24:05.954Z,35.82
2022-07-29T10:27:09.785Z,35.38
2022-07-29T10:30:17.617Z,36.87
2022-07-29T10:33:42.393Z,37.28
2022-07-29T10:37:21.184Z,38.13
2022-07-29T10:41:03.645Z,37.86
2022-07-29T10:44:23.301Z,38.32
2022-07-29T10:47:27.522Z,37.37
2022-07-29T10:50:56.372Z,37.74
2022-07-29T10:54:00.803Z,38.56
2022-07-29T10:57:53.775Z,39.28
2022-07-29T11:00:54.584Z,40.32
2022-07-29T11:03:58.799Z,38.50
2022-07-29T11:07:04.025Z,38.64
2022-07-29T11:10:12.711Z,38.32
2022-07-29T11:13:55.875Z,36.84
2022-07-29T11:17:06.411Z,36.37
2022-07-29T11:20:38.311Z,35.06
2022-07-29T11:23:44.625Z,35.13
2022-07-29T11:27:20.085Z,34.70
2022-07-29T11:30:42.660Z,34.08
2022-07-29T11:33:56.223Z,34.24
2022-07-29T11:37:08.440Z,34.51
2022-07-29T11:40:13.279Z,34.55
2022-07-29T11:43:54.574Z,34.38
2022-07-29T11:46:57.119Z,33.93
2022-07-29T11:50:03.479Z,33.95
2022-07-29T11:53:14.870Z,34.46
2022-07-29T11:56:22.486Z,35.21
2022-07-29T11:59:33.041Z,35.89
2022-07-29T12:02:43.398Z,37.60
2022-07-29T12:07:03.869Z,38.98
2022-07-29T12:09:14.365Z,39.41
2022-07-29T12:12:18.072Z,39.95
2022-07-29T12:15:39.231Z,40.16
2022-07-29T12:18:57.457Z,38.46
2022-07-29T12:22:02.238Z,37.58
2022-07-29T12:28:39.429Z,37.35
2022-07-29T12:31:45.313Z,36.83
2022-07-29T12:34:48.665Z,36.11
2022-07-29T12:37:53.161Z,35.71
2022-07-29T12:40:58.684Z,36.83
2022-07-29T12:44:01.082Z,38.12
2022-07-29T12:47:06.366Z,38.88
2022-07-29T12:50:16.067Z,37.53
2022-07-29T12:53:22.137Z,37.85
2022-07-29T12:56:42.221Z,38.78
2022-07-29T12:59:46.063Z,38.33
2022-07-29T13:02:56.605Z,39.81
2022-07-29T13:05:59.177Z,40.57
2022-07-29T13:09:18.399Z,41.36
2022-07-29T13:12:21.944Z,41.64
2022-07-29T13:15:24.330Z,41.87
2022-07-29T13:18:35.055Z,41.09
2022-07-29T13:21:39.063Z,41.34
2022-07-29T13:24:51.487Z,40.98
2022-07-29T13:27:55.464Z,40.94
2022-07-29T13:30:58.028Z,40.94
2022-07-29T13:34:00.408Z,41.22
2022-07-29T13:37:03.260Z,41.39
2022-07-29T13:40:08.947Z,42.12
2022-07-29T13:43:12.003Z,41.79
2022-07-29T13:46:14.436Z,42.27
2022-07-29T13:49:16.889Z,42.71
2022-07-29T13:52:19.258Z,41.02
2022-07-29T13:55:22.188Z,40.03
2022-07-29T13:58:24.622Z,39.70
2022-07-29T14:01:28.629Z,39.82
2022-07-29T14:04:31.172Z,39.55
2022-07-29T14:07:33.966Z,39.42
2022-07-29T14:10:36.504Z,40.15
2022-07-29T14:13:38.944Z,40.48
2022-07-29T14:16:47.601Z,38.67
2022-07-29T14:19:52.911Z,37.79
2022-07-29T14:22:55.228Z,38.93
2022-07-29T14:25:57.773Z,39.42
2022-07-29T14:29:00.138Z,39.64
2022-07-29T14:32:05.488Z,39.42
2022-07-29T14:35:08.959Z,39.99
2022-07-29T14:38:11.423Z,39.92
2022-07-29T14:41:13.835Z,39.75
2022-07-29T14:44:16.538Z,39.61
2022-07-29T14:47:18.919Z,39.35
2022-07-29T14:50:23.367Z,39.51
2022-07-29T14:53:35.130Z,38.84
2022-07-29T14:56:37.860Z,38.68
2022-07-29T14:59:49.352Z,38.35
2022-07-29T15:03:02.055Z,37.89
2022-07-29T15:06:04.895Z,37.72
2022-07-29T15:09:07.466Z,37.95
2022-07-29T15:12:11.469Z,38.13
2022-07-29T15:15:13.945Z,37.66
2022-07-29T15:18:16.385Z,36.98
2022-07-29T15:21:28.676Z,36.53
2022-07-29T15:24:31.451Z,36.67
2022-07-29T15:27:34.041Z,36.36
2022-07-29T15:30:41.630Z,35.98
2022-07-29T15:33:44.179Z,35.45
2022-07-29T15:36:52.598Z,35.64
2022-07-29T15:39:59.750Z,35.89
2022-07-29T15:43:06.851Z,36.35
2022-07-29T15:46:27.900Z,36.55
2022-07-29T15:49:48.213Z,36.37
2022-07-29T15:52:52.002Z,36.06
2022-07-29T15:55:54.470Z,35.98
2022-07-29T15:58:57.523Z,35.00
2022-07-29T16:02:00.678Z,35.03
2022-07-29T16:05:03.225Z,34.93
2022-07-29T16:08:12.703Z,35.08
2022-07-29T16:11:15.406Z,35.41
2022-07-29T16:14:18.443Z,35.34
2022-07-29T16:17:20.910Z,34.42
2022-07-29T16:20:23.351Z,34.09
2022-07-29T16:23:25.822Z,34.35
2022-07-29T16:26:28.387Z,34.65
2022-07-29T16:29:32.079Z,34.60
2022-07-29T16:32:41.287Z,34.42
2022-07-29T16:35:43.731Z,34.44
2022-07-29T16:38:53.303Z,34.53
2022-07-29T16:41:59.839Z,34.15
2022-07-29T16:45:04.915Z,33.93
2022-07-29T16:48:07.606Z,34.01
2022-07-29T16:51:10.461Z,34.09
2022-07-29T16:54:16.814Z,34.01
2022-07-29T16:57:19.218Z,34.00
2022-07-29T17:00:22.216Z,33.78
2022-07-29T17:03:24.655Z,33.56
2022-07-29T17:06:27.331Z,33.47
2022-07-29T17:09:29.679Z,33.09
2022-07-29T17:12:32.502Z,32.80
2022-07-29T17:15:36.376Z,32.56
2022-07-29T17:18:39.063Z,32.31
2022-07-29T17:21:48.374Z,32.31
2022-07-29T17:24:51.839Z,32.29
2022-07-29T17:28:00.516Z,32.10
2022-07-29T17:31:03.392Z,31.91
2022-07-29T17:34:06.821Z,31.72
2022-07-29T17:37:11.778Z,31.83
2022-07-29T17:40:14.193Z,31.37
2022-07-29T17:43:16.605Z,31.21
2022-07-29T17:46:20.077Z,31.16
2022-07-29T17:49:22.698Z,31.05
2022-07-29T17:52:25.066Z,30.60
2022-07-29T17:55:27.784Z,30.48
2022-07-29T17:58:30.676Z,30.21
2022-07-29T18:01:33.938Z,30.00
2022-07-29T18:04:36.384Z,29.84
2022-07-29T18:07:38.894Z,29.46
2022-07-29T18:10:41.513Z,29.39
2022-07-29T18:13:44.044Z,29.36
2022-07-29T18:16:46.517Z,29.26
2022-07-29T18:19:49.140Z,28.98
2022-07-29T18:22:51.489Z,28.70
2022-07-29T18:25:53.928Z,28.67
2022-07-29T18:28:56.297Z,28.39
2022-07-29T18:32:01.867Z,28.32
2022-07-29T18:35:06.406Z,28.47
2022-07-29T18:38:08.908Z,28.43
2022-07-29T18:41:11.597Z,28.46
2022-07-29T18:44:17.021Z,28.36
2022-07-29T18:47:19.701Z,28.32
2022-07-29T18:50:28.789Z,28.27
2022-07-29T18:53:31.449Z,28.24
2022-07-29T18:56:39.374Z,28.23
2022-07-29T18:59:43.350Z,28.20
2022-07-29T19:02:45.929Z,28.08
2022-07-29T19:05:48.353Z,27.89
2022-07-29T19:08:52.392Z,27.95
2022-07-29T19:11:56.735Z,27.89
2022-07-29T19:15:00.524Z,27.79
2022-07-29T19:18:03.015Z,27.84
2022-07-29T19:21:05.506Z,27.71
2022-07-29T19:24:12.316Z,27.42
2022-07-29T19:27:17.285Z,27.13
2022-07-29T19:30:19.744Z,26.80
2022-07-29T19:33:22.264Z,27.30
2022-07-29T19:36:24.731Z,27.41
2022-07-29T19:39:34.974Z,27.48
2022-07-29T19:42:38.090Z,27.59
2022-07-29T19:45:40.735Z,27.58
2022-07-29T19:48:43.191Z,27.65
2022-07-29T19:51:45.727Z,27.71
2022-07-29T19:54:48.224Z,27.78
2022-07-29T19:57:51.193Z,27.78
2022-07-29T20:00:53.887Z,27.81
2022-07-29T20:03:56.327Z,27.75
2022-07-29T20:07:01.524Z,27.68
2022-07-29T20:10:06.456Z,27.61
2022-07-29T20:13:08.887Z,27.50
2022-07-29T20:16:11.444Z,27.40
2022-07-29T20:19:13.903Z,27.38
2022-07-29T20:22:21.095Z,27.27
2022-07-29T20:25:24.051Z,27.18
2022-07-29T20:28:26.507Z,27.07
2022-07-29T20:31:30.631Z,27.03
2022-07-29T20:34:33.288Z,27.03
2022-07-29T20:37:52.253Z,27.04
2022-07-29T20:40:58.918Z,27.15
2022-07-29T20:44:04.705Z,27.17
2022-07-29T20:47:07.174Z,27.11
2022-07-29T20:50:10.206Z,27.03
2022-07-29T20:53:12.796Z,26.94
2022-07-29T20:56:15.208Z,26.87
2022-07-29T20:59:17.847Z,26.86
2022-07-29T21:02:20.321Z,26.83
2022-07-29T21:05:23.116Z,26.79
2022-07-29T21:08:26.188Z,26.75
2022-07-29T21:11:43.162Z,26.68
2022-07-29T21:14:48.090Z,26.66
2022-07-29T21:17:52.720Z,26.59
2022-07-29T21:20:55.222Z,26.53
2022-07-29T21:23:57.721Z,26.43
2022-07-29T21:27:21.298Z,26.45
2022-07-29T21:30:24.349Z,26.36
2022-07-29T21:33:28.712Z,26.28
2022-07-29T21:36:48.520Z,26.24
2022-07-29T21:39:51.383Z,26.21
2022-07-29T21:42:53.876Z,26.12
2022-07-29T21:45:57.719Z,26.11
2022-07-29T21:49:00.251Z,26.05
2022-07-29T21:52:02.669Z,26.11
2022-07-29T21:55:05.580Z,25.99
2022-07-29T21:58:08.548Z,25.92
2022-07-29T22:01:11.117Z,25.87
2022-07-29T22:04:13.614Z,25.87
2022-07-29T22:07:16.128Z,25.91
2022-07-29T22:10:18.495Z,25.90
2022-07-29T22:13:20.951Z,25.84
2022-07-29T22:16:23.319Z,25.87
2022-07-29T22:19:27.400Z,25.75
2022-07-29T22:22:30.108Z,25.60
2022-07-29T22:25:32.727Z,25.29
2022-07-29T22:28:35.065Z,25.03
2022-07-29T22:31:37.620Z,24.99
2022-07-29T22:34:39.980Z,25.06
2022-07-29T22:37:42.445Z,24.95
2022-07-29T22:40:44.853Z,24.78
2022-07-29T22:43:47.798Z,24.83
2022-07-29T22:46:50.193Z,24.76
2022-07-29T22:49:52.713Z,24.75
2022-07-29T22:52:55.152Z,24.78
2022-07-29T22:55:57.634Z,24.82
2022-07-29T22:58:59.970Z,24.61
2022-07-29T23:02:02.365Z,24.65
2022-07-29T23:05:05.121Z,24.52
2022-07-29T23:08:09.124Z,24.49
2022-07-29T23:11:11.519Z,24.61
2022-07-29T23:14:13.930Z,24.52
2022-07-29T23:17:16.387Z,24.37
2022-07-29T23:20:19.262Z,24.32
2022-07-29T23:23:21.590Z,24.20
2022-07-29T23:26:23.994Z,24.01
2022-07-29T23:29:26.363Z,23.84
2022-07-29T23:32:28.771Z,23.81
2022-07-29T23:35:31.139Z,23.98
2022-07-29T23:38:33.592Z,23.98
2022-07-29T23:41:36.001Z,24.03
2022-07-29T23:44:38.511Z,23.73
2022-07-29T23:47:41.380Z,23.57
2022-07-29T23:50:44.108Z,23.53
2022-07-29T23:53:53.908Z,23.56
2022-07-29T23:56:58.099Z,23.62
